createdAt,value
2018-12-27T00:07:54.384Z,16.20
2018-12-27T00:17:59.747Z,17.53
2018-12-27T00:28:05.157Z,16.97
2018-12-27T00:38:10.561Z,15.23
2018-12-27T00:48:16.112Z,12.63
2018-12-27T00:58:21.519Z,15.60
2018-12-27T01:08:26.981Z,17.37
2018-12-27T01:18:32.459Z,13.33
2018-12-27T01:28:38.048Z,15.00
2018-12-27T01:38:43.559Z,13.47
2018-12-27T01:48:49.052Z,16.57
2018-12-27T01:58:54.646Z,13.03
2018-12-27T02:09:00.200Z,16.93
2018-12-27T02:19:05.676Z,17.97
2018-12-27T02:29:11.059Z,15.73
2018-12-27T02:39:16.626Z,15.07
2018-12-27T02:49:22.096Z,13.60
2018-12-27T02:59:27.616Z,14.47
2018-12-27T03:09:33.052Z,14.77
2018-12-27T03:19:38.484Z,12.53
2018-12-27T03:29:44.232Z,13.73
2018-12-27T03:39:49.736Z,13.40
2018-12-27T03:49:55.220Z,14.57
2018-12-27T04:00:00.829Z,13.80
2018-12-27T04:10:06.433Z,17.23
2018-12-27T04:20:11.736Z,12.70
2018-12-27T04:30:17.229Z,14.00
2018-12-27T04:40:22.475Z,18.10
2018-12-27T04:50:27.710Z,13.77
2018-12-27T05:00:33.056Z,14.10
2018-12-27T05:10:38.402Z,12.80
2018-12-27T05:20:43.709Z,15.80
2018-12-27T05:30:49.054Z,11.27
2018-12-27T05:40:54.430Z,12.47
2018-12-27T05:50:59.806Z,16.50
2018-12-27T06:01:05.120Z,14.93
2018-12-27T06:11:10.539Z,13.50
2018-12-27T06:21:15.896Z,17.63
2018-12-27T06:31:21.178Z,21.07
2018-12-27T06:41:26.483Z,18.43
2018-12-27T06:51:31.758Z,16.63
2018-12-27T07:01:37.122Z,17.87
2018-12-27T07:11:42.476Z,22.87
2018-12-27T07:21:47.812Z,21.97
2018-12-27T07:31:53.144Z,16.53
2018-12-27T07:41:58.461Z,20.57
2018-12-27T07:52:03.845Z,21.20
2018-12-27T08:02:09.145Z,23.33
2018-12-27T08:12:14.751Z,17.97
2018-12-27T08:22:20.126Z,15.57
2018-12-27T08:32:25.555Z,14.77
2018-12-27T08:42:30.901Z,16.50
2018-12-27T08:52:36.458Z,15.13
2018-12-27T09:02:41.821Z,13.50
2018-12-27T09:12:47.260Z,18.40
2018-12-27T09:22:52.550Z,14.87
2018-12-27T09:32:58.088Z,14.13
2018-12-27T09:43:03.468Z,19.87
2018-12-27T09:53:08.830Z,19.73
2018-12-27T10:03:14.250Z,19.10
2018-12-27T10:13:19.608Z,17.90
2018-12-27T10:23:25.055Z,17.57
2018-12-27T10:33:30.459Z,15.07
2018-12-27T10:43:35.970Z,16.30
2018-12-27T10:53:41.369Z,14.87
2018-12-27T11:03:46.742Z,13.50
2018-12-27T11:13:52.173Z,11.57
2018-12-27T11:23:57.595Z,13.43
2018-12-27T11:34:02.902Z,14.40
2018-12-27T11:44:08.253Z,17.83
2018-12-27T11:54:13.548Z,14.70
2018-12-27T12:04:19.044Z,15.90
2018-12-27T12:14:24.382Z,14.33
2018-12-27T12:24:29.813Z,16.23
2018-12-27T12:34:35.262Z,17.20
2018-12-27T12:44:40.556Z,15.60
2018-12-27T12:54:46.098Z,15.23
2018-12-27T13:04:51.496Z,14.47
2018-12-27T13:14:57.051Z,14.70
2018-12-27T13:25:02.414Z,11.87
2018-12-27T13:35:07.824Z,13.80
2018-12-27T13:45:13.230Z,14.93
2018-12-27T13:55:18.801Z,16.50
2018-12-27T14:05:24.161Z,15.33
2018-12-27T14:15:29.578Z,17.17
2018-12-27T14:25:35.007Z,15.80
2018-12-27T14:35:40.319Z,15.00
2018-12-27T14:45:45.616Z,12.30
2018-12-27T14:55:51.041Z,14.90
2018-12-27T15:05:56.425Z,14.47
2018-12-27T15:16:01.880Z,18.23
2018-12-27T15:26:07.516Z,23.17
2018-12-27T15:36:12.890Z,18.73
2018-12-27T15:46:18.384Z,19.57
2018-12-27T15:56:23.755Z,22.40
2018-12-27T16:06:29.129Z,18.20
2018-12-27T16:16:34.452Z,29.87
2018-12-27T16:26:39.867Z,20.07
2018-12-27T16:36:45.339Z,22.57
2018-12-27T16:46:50.783Z,21.87
2018-12-27T16:56:56.257Z,22.73
2018-12-27T17:07:01.914Z,23.77
2018-12-27T17:17:07.419Z,24.00
2018-12-27T17:27:12.826Z,21.97
2018-12-27T17:37:23.302Z,24.83
2018-12-27T17:47:25.288Z,26.00
2018-12-27T17:57:30.984Z,25.00
2018-12-27T18:07:36.505Z,26.70
2018-12-27T18:17:43.098Z,22.80
2018-12-27T18:27:49.589Z,38.83
2018-12-27T18:37:54.945Z,28.43
2018-12-27T18:48:00.973Z,26.27
2018-12-27T18:58:06.407Z,25.93
2018-12-27T19:08:11.903Z,26.10
2018-12-27T19:18:26.518Z,25.80
2018-12-27T19:28:32.804Z,26.77
2018-12-27T19:38:39.450Z,48.57
2018-12-27T19:48:44.955Z,24.97
2018-12-27T19:58:50.380Z,32.00
2018-12-27T20:08:55.791Z,31.03
2018-12-27T20:19:01.186Z,31.03
2018-12-27T20:29:06.631Z,31.27
2018-12-27T20:39:12.206Z,28.70
2018-12-27T20:49:19.428Z,26.13
2018-12-27T20:59:25.110Z,24.23
2018-12-27T21:09:30.450Z,25.20
2018-12-27T21:19:35.975Z,25.47
2018-12-27T21:29:41.456Z,29.47
2018-12-27T21:39:46.948Z,27.10
2018-12-27T21:49:52.270Z,21.90
2018-12-27T21:59:57.645Z,22.80
2018-12-27T22:10:03.101Z,21.90
2018-12-27T22:20:08.542Z,16.63
2018-12-27T22:30:14.034Z,19.57
2018-12-27T22:40:19.615Z,19.53
2018-12-27T22:50:25.005Z,18.57
2018-12-27T23:00:39.043Z,17.43
2018-12-27T23:10:45.641Z,17.13
2018-12-27T23:20:51.039Z,17.80
2018-12-27T23:30:56.475Z,18.27
2018-12-27T23:41:01.948Z,19.23
2018-12-27T23:51:07.459Z,16.17
